createdAt,value
2019-04-26T00:00:36.416Z,3.53
2019-04-26T00:03:07.783Z,3.67
2019-04-26T00:05:38.405Z,3.12
2019-04-26T00:08:09.260Z,2.85
2019-04-26T00:11:01.333Z,4.80
2019-04-26T00:13:48.456Z,3.72
2019-04-26T00:16:39.929Z,4.12
2019-04-26T00:19:09.541Z,3.45
2019-04-26T00:21:40.064Z,4.60
2019-04-26T00:24:09.624Z,4.12
2019-04-26T00:26:38.822Z,4.53
2019-04-26T00:29:08.119Z,4.80
2019-04-26T00:31:37.426Z,4.25
2019-04-26T00:34:06.732Z,5.60
2019-04-26T00:36:35.940Z,4.25
2019-04-26T00:39:06.531Z,4.77
2019-04-26T00:41:38.599Z,3.55
2019-04-26T00:44:07.767Z,5.58
2019-04-26T00:46:39.049Z,3.93
2019-04-26T00:49:10.466Z,5.22
2019-04-26T00:51:40.809Z,3.85
2019-04-26T00:54:10.494Z,4.92
2019-04-26T00:56:41.030Z,4.30
2019-04-26T00:59:11.148Z,4.80
2019-04-26T01:01:44.715Z,5.03
2019-04-26T01:04:14.398Z,4.35
2019-04-26T01:06:46.602Z,5.17
2019-04-26T01:09:17.368Z,4.85
2019-04-26T01:11:46.718Z,4.37
2019-04-26T01:14:16.575Z,4.67
2019-04-26T01:16:46.984Z,4.90
2019-04-26T01:19:18.596Z,5.12
2019-04-26T01:21:52.417Z,4.83
2019-04-26T01:24:25.266Z,4.15
2019-04-26T01:26:56.411Z,5.80
2019-04-26T01:29:27.925Z,6.50
2019-04-26T01:32:06.151Z,6.53
2019-04-26T01:34:36.560Z,5.25
2019-04-26T01:37:06.011Z,6.42
2019-04-26T01:39:37.380Z,5.17
2019-04-26T01:42:32.745Z,4.70
2019-04-26T01:45:28.273Z,5.20
2019-04-26T01:48:01.601Z,6.67
2019-04-26T01:50:33.746Z,6.42
2019-04-26T01:53:03.819Z,5.65
2019-04-26T01:55:33.854Z,6.10
2019-04-26T02:00:47.519Z,6.25
2019-04-26T02:03:21.559Z,6.37
2019-04-26T02:05:52.225Z,7.37
2019-04-26T02:08:22.092Z,5.87
2019-04-26T02:10:52.318Z,5.83
2019-04-26T02:13:22.527Z,6.70
2019-04-26T02:15:52.817Z,6.20
2019-04-26T02:18:23.914Z,6.70
2019-04-26T02:21:05.597Z,6.87
2019-04-26T02:23:44.511Z,6.22
2019-04-26T02:26:33.332Z,9.65
2019-04-26T02:29:05.403Z,7.00
2019-04-26T02:31:35.960Z,7.80
2019-04-26T02:34:06.492Z,7.42
2019-04-26T02:36:55.177Z,8.60
2019-04-26T02:39:20.061Z,7.67
2019-04-26T02:41:52.206Z,7.17
2019-04-26T02:44:28.869Z,7.72
2019-04-26T02:47:46.710Z,8.33
2019-04-26T02:50:22.191Z,8.18
2019-04-26T02:53:11.733Z,7.37
2019-04-26T02:56:20.960Z,9.43
2019-04-26T02:59:34.095Z,7.67
2019-04-26T03:02:06.977Z,8.45
2019-04-26T03:04:39.549Z,6.85
2019-04-26T03:07:25.385Z,8.83
2019-04-26T03:09:55.911Z,9.60
2019-04-26T03:12:28.954Z,9.33
2019-04-26T03:15:25.349Z,7.60
2019-04-26T03:18:17.450Z,8.38
2019-04-26T03:20:50.375Z,8.43
2019-04-26T03:23:55.629Z,8.53
2019-04-26T03:26:43.334Z,8.70
2019-04-26T03:29:43.804Z,8.55
2019-04-26T03:32:54.116Z,10.58
2019-04-26T03:35:57.156Z,10.68
2019-04-26T03:39:06.182Z,10.18
2019-04-26T03:42:23.052Z,9.33
2019-04-26T03:45:29.864Z,10.93
2019-04-26T03:48:10.149Z,9.68
2019-04-26T03:50:46.757Z,9.85
2019-04-26T03:53:31.957Z,8.10
2019-04-26T03:56:42.238Z,9.35
2019-04-26T03:59:44.168Z,9.90
2019-04-26T04:02:26.730Z,10.08
2019-04-26T04:05:10.776Z,10.53
2019-04-26T04:07:45.987Z,8.38
2019-04-26T04:10:19.197Z,10.98
2019-04-26T04:13:05.406Z,10.00
2019-04-26T04:15:44.063Z,10.88
2019-04-26T04:18:20.506Z,11.45
2019-04-26T04:21:29.900Z,10.48
2019-04-26T04:24:09.781Z,12.25
2019-04-26T04:27:20.849Z,11.35
2019-04-26T04:29:58.067Z,11.65
2019-04-26T04:32:49.896Z,11.25
2019-04-26T04:35:22.751Z,12.13
2019-04-26T04:38:09.244Z,11.12
2019-04-26T04:41:13.843Z,11.53
2019-04-26T04:43:53.990Z,10.48
2019-04-26T04:47:22.179Z,10.68
2019-04-26T04:50:12.077Z,11.28
2019-04-26T04:52:53.854Z,11.10
2019-04-26T04:55:46.352Z,12.00
2019-04-26T04:58:20.671Z,12.20
2019-04-26T05:01:50.395Z,11.28
2019-04-26T05:04:30.079Z,11.38
2019-04-26T05:07:31.976Z,12.45
2019-04-26T05:10:29.714Z,11.57
2019-04-26T05:13:12.479Z,11.65
2019-04-26T05:16:37.903Z,12.63
2019-04-26T05:19:28.659Z,12.43
2019-04-26T05:22:25.587Z,12.18
2019-04-26T05:26:12.179Z,12.03
2019-04-26T05:29:09.445Z,10.80
2019-04-26T05:31:54.932Z,13.18
2019-04-26T05:34:52.763Z,12.00
2019-04-26T05:37:44.630Z,10.60
2019-04-26T05:40:44.499Z,11.38
2019-04-26T05:43:53.930Z,9.63
2019-04-26T05:47:08.012Z,10.38
2019-04-26T05:50:19.174Z,11.78
2019-04-26T05:53:32.304Z,11.33
2019-04-26T05:56:26.469Z,13.22
2019-04-26T05:59:07.138Z,10.65
2019-04-26T06:02:31.537Z,10.72
2019-04-26T06:05:23.264Z,12.03
2019-04-26T06:08:30.997Z,11.30
2019-04-26T06:11:03.197Z,12.13
2019-04-26T06:14:47.493Z,10.88
2019-04-26T06:17:53.169Z,11.88
2019-04-26T06:20:43.490Z,12.63
2019-04-26T06:23:28.073Z,13.25
2019-04-26T06:26:50.169Z,11.68
2019-04-26T06:29:42.294Z,10.05
2019-04-26T06:32:20.341Z,12.68
2019-04-26T06:35:16.532Z,11.15
2019-04-26T06:38:16.804Z,12.03
2019-04-26T06:41:02.620Z,12.10
2019-04-26T06:43:40.647Z,11.95
2019-04-26T06:46:47.361Z,10.58
2019-04-26T06:49:33.076Z,9.25
2019-04-26T06:52:20.052Z,12.60
2019-04-26T06:55:40.305Z,9.78
2019-04-26T06:58:31.991Z,11.28
2019-04-26T07:01:18.118Z,10.28
2019-04-26T07:04:46.816Z,11.22
2019-04-26T07:07:47.285Z,10.38
2019-04-26T07:10:45.516Z,10.08
2019-04-26T07:13:43.735Z,9.95
2019-04-26T07:16:50.333Z,10.32
2019-04-26T07:20:09.731Z,10.28
2019-04-26T07:23:17.972Z,8.63
2019-04-26T07:26:20.350Z,10.20
2019-04-26T07:29:03.158Z,10.93
2019-04-26T07:31:45.143Z,10.08
2019-04-26T07:35:00.971Z,11.25
2019-04-26T07:38:06.908Z,9.40
2019-04-26T07:41:20.987Z,9.55
2019-04-26T07:44:10.134Z,9.58
2019-04-26T07:47:15.128Z,11.17
2019-04-26T07:50:16.061Z,9.93
2019-04-26T07:53:04.947Z,10.60
2019-04-26T07:55:48.349Z,9.93
2019-04-26T07:59:28.945Z,9.35
2019-04-26T08:02:33.244Z,9.35
2019-04-26T08:05:16.291Z,9.63
2019-04-26T08:07:51.771Z,8.85
2019-04-26T08:10:31.445Z,9.98
2019-04-26T08:13:07.866Z,9.85
2019-04-26T08:15:51.911Z,9.65
2019-04-26T08:18:31.745Z,10.35
2019-04-26T08:21:17.240Z,8.23
2019-04-26T08:23:56.560Z,9.75
2019-04-26T08:26:28.934Z,8.20
2019-04-26T08:29:00.580Z,8.83
2019-04-26T08:31:33.486Z,9.00
2019-04-26T08:34:08.662Z,7.95
2019-04-26T08:36:47.933Z,9.70
2019-04-26T08:39:29.702Z,8.28
2019-04-26T08:41:58.239Z,9.48
2019-04-26T08:44:52.217Z,10.15
2019-04-26T08:47:51.047Z,8.70
2019-04-26T08:50:25.028Z,8.13
2019-04-26T08:52:59.580Z,7.62
2019-04-26T08:55:30.079Z,8.25
2019-04-26T08:58:07.013Z,8.68
2019-04-26T09:01:10.937Z,8.63
2019-04-26T09:03:47.120Z,7.67
2019-04-26T09:06:21.643Z,9.03
2019-04-26T09:08:53.923Z,8.08
2019-04-26T09:11:30.198Z,6.97
2019-04-26T09:13:59.077Z,7.50
2019-04-26T09:16:28.379Z,8.03
2019-04-26T09:18:59.754Z,8.43
2019-04-26T09:21:39.642Z,9.63
2019-04-26T09:24:33.091Z,8.50
2019-04-26T09:27:22.490Z,9.80
2019-04-26T09:30:08.231Z,8.20
2019-04-26T09:32:44.918Z,8.20
2019-04-26T09:35:16.253Z,7.87
2019-04-26T09:37:45.482Z,9.18
2019-04-26T09:40:21.518Z,8.45
2019-04-26T09:43:05.330Z,9.93
2019-04-26T09:45:53.769Z,8.75
2019-04-26T09:48:26.781Z,9.35
2019-04-26T09:50:56.060Z,8.43
2019-04-26T09:53:26.551Z,10.88
2019-04-26T09:55:55.924Z,8.03
2019-04-26T09:58:26.873Z,8.68
2019-04-26T10:00:56.069Z,8.90
2019-04-26T10:03:25.431Z,10.35
2019-04-26T10:05:55.774Z,8.78
2019-04-26T10:08:25.556Z,9.23
2019-04-26T10:10:54.816Z,10.88
2019-04-26T10:13:39.016Z,9.65
2019-04-26T10:16:33.622Z,9.58
2019-04-26T10:19:09.486Z,9.40
2019-04-26T10:21:38.654Z,8.88
2019-04-26T10:24:08.506Z,7.87
2019-04-26T10:26:37.877Z,7.87
2019-04-26T10:29:07.278Z,10.03
2019-04-26T10:31:36.524Z,9.85
2019-04-26T10:34:07.779Z,9.88
2019-04-26T10:36:38.466Z,9.50
2019-04-26T10:39:10.307Z,9.90
2019-04-26T10:41:42.216Z,7.62
2019-04-26T10:44:11.513Z,8.75
2019-04-26T10:46:40.747Z,9.13
2019-04-26T10:49:41.607Z,9.53
2019-04-26T10:52:17.839Z,8.83
2019-04-26T10:54:51.056Z,9.58
2019-04-26T10:57:33.153Z,7.62
2019-04-26T11:00:05.314Z,8.50
2019-04-26T11:02:34.596Z,8.88
2019-04-26T11:05:04.854Z,8.25
2019-04-26T11:07:34.425Z,8.20
2019-04-26T11:10:04.942Z,9.38
2019-04-26T11:12:39.595Z,7.37
2019-04-26T11:15:08.612Z,7.20
2019-04-26T11:17:37.669Z,7.42
2019-04-26T11:20:10.476Z,7.65
2019-04-26T11:22:39.188Z,9.00
2019-04-26T11:25:10.438Z,8.18
2019-04-26T11:27:40.245Z,7.50
2019-04-26T11:30:15.766Z,8.28
2019-04-26T11:32:42.763Z,7.83
2019-04-26T11:35:12.175Z,6.70
2019-04-26T11:37:42.297Z,8.55
2019-04-26T11:40:14.524Z,6.78
2019-04-26T11:42:45.752Z,7.10
2019-04-26T11:45:15.899Z,6.42
2019-04-26T11:47:55.444Z,5.65
2019-04-26T11:50:16.560Z,6.97
2019-04-26T11:52:47.008Z,6.40
2019-04-26T11:55:17.447Z,7.03
2019-04-26T11:57:47.516Z,6.45
2019-04-26T12:00:45.800Z,6.25
2019-04-26T12:03:15.181Z,6.12
2019-04-26T12:05:59.702Z,5.65
2019-04-26T12:08:36.056Z,4.80
2019-04-26T12:11:17.557Z,5.30
2019-04-26T12:13:36.549Z,5.62
2019-04-26T12:16:05.958Z,4.75
2019-04-26T12:18:35.332Z,5.05
2019-04-26T12:21:06.019Z,6.08
2019-04-26T12:23:37.398Z,6.60
2019-04-26T12:26:06.559Z,5.75
2019-04-26T12:28:36.364Z,5.45
2019-04-26T12:31:06.797Z,5.72
2019-04-26T12:33:39.051Z,5.90
2019-04-26T12:36:09.587Z,5.17
2019-04-26T12:38:37.639Z,7.20
2019-04-26T12:41:07.132Z,8.00
2019-04-26T12:43:37.460Z,6.03
2019-04-26T12:46:27.239Z,5.42
2019-04-26T12:48:55.721Z,5.58
2019-04-26T12:51:25.040Z,5.25
2019-04-26T12:53:54.262Z,5.75
2019-04-26T12:56:26.702Z,4.92
2019-04-26T12:58:54.602Z,5.25
2019-04-26T13:01:23.955Z,4.10
2019-04-26T13:04:06.677Z,5.15
2019-04-26T13:06:40.583Z,4.40
2019-04-26T13:09:14.900Z,4.67
2019-04-26T13:12:02.228Z,4.10
2019-04-26T13:14:50.664Z,4.95
2019-04-26T13:17:23.060Z,4.72
2019-04-26T13:19:53.890Z,4.05
2019-04-26T13:22:23.390Z,4.58
2019-04-26T13:24:52.716Z,4.28
2019-04-26T13:27:21.885Z,3.45
2019-04-26T13:30:01.644Z,3.17
2019-04-26T13:32:22.159Z,4.03
2019-04-26T13:34:51.670Z,3.15
2019-04-26T13:37:20.844Z,4.50
2019-04-26T13:39:51.299Z,3.95
2019-04-26T13:42:20.994Z,4.17
2019-04-26T13:45:09.346Z,3.75
2019-04-26T13:47:57.591Z,4.37
2019-04-26T13:50:31.289Z,2.72
2019-04-26T13:53:00.637Z,3.65
2019-04-26T13:55:30.540Z,3.25
2019-04-26T13:58:00.226Z,2.58
2019-04-26T14:00:31.059Z,3.08
2019-04-26T14:03:00.357Z,2.25
2019-04-26T14:05:30.435Z,2.95
2019-04-26T14:07:59.654Z,3.60
2019-04-26T14:10:29.196Z,2.55
2019-04-26T14:12:58.377Z,2.27
2019-04-26T14:15:28.031Z,3.70
2019-04-26T14:18:04.321Z,2.67
2019-04-26T14:20:32.102Z,2.98
2019-04-26T14:23:33.647Z,2.70
2019-04-26T14:26:12.555Z,2.30
2019-04-26T14:28:42.239Z,2.70
2019-04-26T14:33:42.196Z,1.95
2019-04-26T14:36:18.073Z,2.50
2019-04-26T14:38:42.714Z,3.25
2019-04-26T14:41:13.479Z,3.87
2019-04-26T14:43:42.993Z,2.52
2019-04-26T14:46:14.571Z,3.05
2019-04-26T14:48:44.815Z,2.95
2019-04-26T14:51:16.733Z,2.80
2019-04-26T14:53:46.012Z,2.25
2019-04-26T14:56:15.462Z,2.40
2019-04-26T14:58:44.838Z,2.45
2019-04-26T15:01:28.487Z,2.87
2019-04-26T15:04:18.567Z,2.40
2019-04-26T15:06:53.452Z,2.17
2019-04-26T15:09:25.927Z,3.08
2019-04-26T15:11:55.295Z,1.75
2019-04-26T15:14:22.898Z,2.50
2019-04-26T15:16:52.710Z,2.37
2019-04-26T15:19:22.659Z,2.45
2019-04-26T15:24:25.914Z,2.15
2019-04-26T15:26:58.147Z,2.67
2019-04-26T15:29:28.150Z,1.82
2019-04-26T15:31:58.360Z,2.08
2019-04-26T15:34:27.979Z,1.90
2019-04-26T15:36:58.777Z,3.22
2019-04-26T15:39:56.793Z,2.55
2019-04-26T15:42:41.873Z,2.30
2019-04-26T15:45:38.780Z,1.92
2019-04-26T15:48:27.310Z,2.30
2019-04-26T15:50:56.753Z,1.95
2019-04-26T15:53:26.524Z,1.80
2019-04-26T15:55:57.902Z,2.80
2019-04-26T15:58:27.171Z,1.95
2019-04-26T16:00:57.181Z,3.20
2019-04-26T16:03:26.470Z,2.67
2019-04-26T16:05:59.147Z,2.58
2019-04-26T16:08:27.068Z,2.65
2019-04-26T16:10:56.446Z,2.35
2019-04-26T16:13:25.751Z,2.40
2019-04-26T16:15:55.361Z,2.65
2019-04-26T16:18:24.727Z,2.05
2019-04-26T16:20:55.798Z,2.85
2019-04-26T16:23:38.021Z,3.12
2019-04-26T16:25:55.965Z,3.17
2019-04-26T16:28:34.612Z,2.33
2019-04-26T16:31:14.546Z,2.92
2019-04-26T16:33:44.820Z,2.25
2019-04-26T16:36:14.365Z,3.30
2019-04-26T16:38:43.943Z,3.35
2019-04-26T16:41:13.432Z,2.58
2019-04-26T16:43:52.209Z,2.85
2019-04-26T16:46:20.213Z,2.37
2019-04-26T16:48:45.078Z,2.90
2019-04-26T16:51:14.802Z,2.70
2019-04-26T16:54:02.814Z,2.87
2019-04-26T16:56:15.241Z,3.30
2019-04-26T16:58:45.326Z,3.05
2019-04-26T17:01:15.369Z,3.77
2019-04-26T17:03:48.026Z,7.12
2019-04-26T17:06:15.950Z,2.47
2019-04-26T17:08:51.551Z,2.35
2019-04-26T17:11:16.302Z,2.98
2019-04-26T17:13:51.560Z,2.40
2019-04-26T17:16:16.747Z,2.33
2019-04-26T17:18:46.625Z,2.77
2019-04-26T17:21:21.607Z,2.30
2019-04-26T17:24:13.187Z,3.67
2019-04-26T17:26:46.840Z,2.90
2019-04-26T17:29:16.141Z,2.75
2019-04-26T17:31:46.590Z,2.58
2019-04-26T17:34:16.050Z,3.22
2019-04-26T17:36:46.358Z,2.62
2019-04-26T17:39:17.426Z,3.47
2019-04-26T17:41:50.800Z,3.65
2019-04-26T17:44:20.595Z,3.87
2019-04-26T17:46:56.331Z,3.65
2019-04-26T17:49:21.469Z,3.12
2019-04-26T17:51:57.277Z,2.92
2019-04-26T17:54:41.436Z,3.70
2019-04-26T17:56:53.237Z,3.35
2019-04-26T17:59:33.418Z,2.85
2019-04-26T18:02:00.852Z,2.60
2019-04-26T18:04:34.528Z,2.77
2019-04-26T18:07:03.798Z,2.67
2019-04-26T18:09:43.228Z,2.92
2019-04-26T18:12:06.236Z,2.83
2019-04-26T18:14:36.659Z,2.83
2019-04-26T18:17:24.949Z,2.77
2019-04-26T18:20:19.161Z,3.08
2019-04-26T18:23:03.483Z,4.65
2019-04-26T18:25:33.308Z,2.98
2019-04-26T18:28:04.503Z,2.25
2019-04-26T18:30:34.209Z,2.80
2019-04-26T18:33:03.735Z,2.67
2019-04-26T18:35:33.742Z,3.35
2019-04-26T18:38:03.754Z,2.25
2019-04-26T18:43:03.458Z,3.40
2019-04-26T18:45:32.769Z,2.55
2019-04-26T18:48:04.701Z,9.20
2019-04-26T18:50:36.378Z,3.22
2019-04-26T18:53:26.159Z,2.05
2019-04-26T18:55:59.321Z,2.30
2019-04-26T18:58:30.291Z,2.37
2019-04-26T19:01:01.758Z,2.52
2019-04-26T19:03:31.506Z,2.90
2019-04-26T19:06:02.528Z,2.52
2019-04-26T19:08:45.416Z,2.42
2019-04-26T19:11:07.556Z,2.92
2019-04-26T19:13:59.021Z,3.15
2019-04-26T19:16:50.640Z,2.90
2019-04-26T19:19:47.815Z,2.22
2019-04-26T19:22:17.990Z,3.12
2019-04-26T19:24:49.460Z,2.80
2019-04-26T19:27:20.901Z,3.02
2019-04-26T19:29:51.815Z,3.15
2019-04-26T19:32:23.390Z,2.77
2019-04-26T19:34:52.552Z,3.95
2019-04-26T19:37:23.379Z,2.45
2019-04-26T19:39:52.767Z,3.40
2019-04-26T19:42:22.013Z,2.72
2019-04-26T19:45:10.776Z,3.00
2019-04-26T19:47:47.904Z,2.30
2019-04-26T19:50:49.007Z,2.90
2019-04-26T19:53:21.146Z,4.22
2019-04-26T19:56:01.650Z,2.25
2019-04-26T19:58:32.201Z,2.75
2019-04-26T20:01:01.974Z,4.33
2019-04-26T20:03:33.825Z,3.15
2019-04-26T20:06:05.572Z,4.10
2019-04-26T20:08:41.626Z,3.77
2019-04-26T20:11:06.105Z,4.12
2019-04-26T20:13:35.597Z,3.02
2019-04-26T20:16:06.321Z,2.87
2019-04-26T20:18:38.960Z,3.77
2019-04-26T20:21:12.612Z,3.05
2019-04-26T20:23:38.392Z,4.17
2019-04-26T20:26:09.019Z,3.98
2019-04-26T20:28:39.807Z,3.80
2019-04-26T20:31:20.927Z,3.65
2019-04-26T20:33:50.326Z,4.00
2019-04-26T20:36:21.536Z,3.72
2019-04-26T20:38:52.194Z,3.17
2019-04-26T20:41:22.585Z,4.22
2019-04-26T20:44:04.309Z,4.05
2019-04-26T20:46:24.782Z,5.97
2019-04-26T20:48:53.858Z,5.30
2019-04-26T20:51:24.257Z,4.47
2019-04-26T20:53:53.897Z,4.72
2019-04-26T20:56:23.411Z,4.70
2019-04-26T20:58:53.334Z,4.92
2019-04-26T21:01:22.731Z,5.42
2019-04-26T21:03:52.122Z,5.70
2019-04-26T21:06:22.263Z,5.55
2019-04-26T21:08:54.046Z,4.87
2019-04-26T21:11:23.678Z,5.40
2019-04-26T21:13:52.966Z,4.45
2019-04-26T21:16:22.472Z,5.00
2019-04-26T21:18:52.408Z,4.58
2019-04-26T21:21:22.299Z,6.00
2019-04-26T21:23:52.467Z,4.72
2019-04-26T21:29:29.935Z,6.03
2019-04-26T21:32:35.443Z,5.22
2019-04-26T21:35:07.410Z,4.45
2019-04-26T21:37:40.936Z,6.45
2019-04-26T21:40:26.154Z,6.60
2019-04-26T21:43:03.765Z,5.62
2019-04-26T21:45:35.604Z,6.80
2019-04-26T21:48:08.224Z,5.72
2019-04-26T21:50:39.030Z,6.65
2019-04-26T21:53:08.382Z,5.40
2019-04-26T21:55:38.765Z,6.72
2019-04-26T21:58:08.219Z,6.00
2019-04-26T22:00:59.976Z,5.37
2019-04-26T22:03:29.474Z,6.53
2019-04-26T22:05:58.868Z,8.65
2019-04-26T22:08:31.267Z,7.00
2019-04-26T22:11:00.586Z,7.58
2019-04-26T22:13:37.315Z,6.85
2019-04-26T22:16:29.334Z,7.20
2019-04-26T22:19:23.850Z,7.75
2019-04-26T22:22:23.111Z,9.10
2019-04-26T22:24:53.137Z,11.45
2019-04-26T22:27:25.343Z,10.25
2019-04-26T22:29:55.057Z,10.40
2019-04-26T22:32:24.552Z,12.33
2019-04-26T22:34:53.928Z,11.38
2019-04-26T22:37:29.717Z,12.95
2019-04-26T22:39:54.371Z,16.77
2019-04-26T22:42:23.988Z,17.23
2019-04-26T22:45:03.259Z,16.27
2019-04-26T22:47:40.927Z,18.05
2019-04-26T22:50:07.523Z,19.23
2019-04-26T22:52:36.574Z,20.10
2019-04-26T22:55:07.653Z,19.75
2019-04-26T22:57:36.859Z,22.70
2019-04-26T23:00:07.344Z,21.87
2019-04-26T23:02:36.564Z,24.50
2019-04-26T23:05:06.870Z,23.80
2019-04-26T23:07:36.287Z,26.12
2019-04-26T23:10:08.380Z,21.82
2019-04-26T23:12:58.014Z,19.95
2019-04-26T23:15:35.846Z,19.82
2019-04-26T23:18:24.150Z,21.00
2019-04-26T23:21:03.609Z,21.20
2019-04-26T23:23:32.942Z,19.00
2019-04-26T23:26:02.316Z,18.10
2019-04-26T23:28:36.906Z,16.62
2019-04-26T23:31:07.896Z,11.70
2019-04-26T23:33:35.064Z,15.40
2019-04-26T23:36:04.408Z,14.67
2019-04-26T23:38:37.495Z,16.43
2019-04-26T23:41:07.142Z,14.65
2019-04-26T23:43:35.393Z,15.95
2019-04-26T23:46:04.967Z,13.35
2019-04-26T23:48:34.189Z,12.23
2019-04-26T23:51:04.827Z,14.20
2019-04-26T23:53:35.903Z,14.43
2019-04-26T23:56:05.255Z,15.20
2019-04-26T23:58:34.434Z,14.85
